LYSO weather

CLOSED Sombor Airport
Sombor, West Bačka, Serbia

Public forecast

Using degrees Celsius for public forecast. Weather courtesy of forecast.io.

METAR (pilot weather report)

Closest report is Osijek Airport, 18.7 nm (34.7 km) SW. Retrieved 2019/06/25 09:30 UTC (3 minutes ago):

LDOS 250930Z 01005KT 290V070 9999 FEW030 26/21 Q1022

TAF (pilot weather forecast)

Closest forecast is Osijek Airport, 18.7 nm (34.7 km) SW. Retrieved 2019/06/25 06:00 UTC (4 hours ago):

TAF LDOS 250525Z 2506/2606 32005KT 9999 FEW035 TX29/2513Z TN17/2603Z PROB40 TEMPO 2510/2512 SHRA FEW035TCU PROB40 TEMPO 2512/2519 06015G25KT TSRA FEW035CB BKN040 PROB30 2603/2606 0500 FG